sensor_id;sensor_type;location;lat;lon;timestamp;temperature;humidity
3156;DHT22;1588;50.892;7.082;2024-02-14T00:00:37;8.50;99.90
3156;DHT22;1588;50.892;7.082;2024-02-14T00:05:42;8.50;99.90
3156;DHT22;1588;50.892;7.082;2024-02-14T00:10:44;8.50;99.90
3156;DHT22;1588;50.892;7.082;2024-02-14T00:15:49;8.50;99.90
3156;DHT22;1588;50.892;7.082;2024-02-14T00:20:52;8.50;99.90
3156;DHT22;1588;50.892;7.082;2024-02-14T00:25:54;8.50;99.90
3156;DHT22;1588;50.892;7.082;2024-02-14T00:30:58;8.50;99.90
3156;DHT22;1588;50.892;7.082;2024-02-14T00:36:01;8.70;99.90
3156;DHT22;1588;50.892;7.082;2024-02-14T00:41:04;8.70;99.90
3156;DHT22;1588;50.892;7.082;2024-02-14T00:46:07;8.90;99.90
3156;DHT22;1588;50.892;7.082;2024-02-14T00:51:10;9.00;99.90
3156;DHT22;1588;50.892;7.082;2024-02-14T00:56:13;8.90;99.90
3156;DHT22;1588;50.892;7.082;2024-02-14T01:01:17;9.00;99.90
3156;DHT22;1588;50.892;7.082;2024-02-14T01:06:19;9.00;99.90
3156;DHT22;1588;50.892;7.082;2024-02-14T01:11:22;8.90;99.90
3156;DHT22;1588;50.892;7.082;2024-02-14T01:16:26;9.00;99.90
3156;DHT22;1588;50.892;7.082;2024-02-14T01:21:28;8.90;99.90
3156;DHT22;1588;50.892;7.082;2024-02-14T01:26:30;8.90;99.90
3156;DHT22;1588;50.892;7.082;2024-02-14T01:31:34;8.90;99.90
3156;DHT22;1588;50.892;7.082;2024-02-14T01:36:36;9.00;99.90
3156;DHT22;1588;50.892;7.082;2024-02-14T01:41:44;9.00;99.90
3156;DHT22;1588;50.892;7.082;2024-02-14T01:46:50;9.00;99.90
3156;DHT22;1588;50.892;7.082;2024-02-14T01:51:55;8.90;99.90
3156;DHT22;1588;50.892;7.082;2024-02-14T01:57:05;9.00;99.90
3156;DHT22;1588;50.892;7.082;2024-02-14T02:02:13;9.00;99.90
3156;DHT22;1588;50.892;7.082;2024-02-14T02:07:15;9.10;99.90
3156;DHT22;1588;50.892;7.082;2024-02-14T02:18:19;9.00;99.90
3156;DHT22;1588;50.892;7.082;2024-02-14T02:23:23;9.00;99.90
3156;DHT22;1588;50.892;7.082;2024-02-14T02:28:26;8.90;99.90
3156;DHT22;1588;50.892;7.082;2024-02-14T02:33:28;8.90;99.90
3156;DHT22;1588;50.892;7.082;2024-02-14T02:38:32;8.90;99.90
3156;DHT22;1588;50.892;7.082;2024-02-14T02:43:34;9.00;99.90
3156;DHT22;1588;50.892;7.082;2024-02-14T02:48:37;9.00;99.90
3156;DHT22;1588;50.892;7.082;2024-02-14T02:53:40;8.90;99.90
3156;DHT22;1588;50.892;7.082;2024-02-14T02:58:43;8.90;99.90
3156;DHT22;1588;50.892;7.082;2024-02-14T03:03:46;8.90;99.90
3156;DHT22;1588;50.892;7.082;2024-02-14T03:08:50;8.90;99.90
3156;DHT22;1588;50.892;7.082;2024-02-14T03:13:59;8.90;99.90
3156;DHT22;1588;50.892;7.082;2024-02-14T03:19:01;8.90;99.90
3156;DHT22;1588;50.892;7.082;2024-02-14T03:24:06;9.00;99.90
3156;DHT22;1588;50.892;7.082;2024-02-14T03:29:11;8.90;99.90
3156;DHT22;1588;50.892;7.082;2024-02-14T03:34:14;8.90;99.90
3156;DHT22;1588;50.892;7.082;2024-02-14T03:39:18;8.80;99.90
3156;DHT22;1588;50.892;7.082;2024-02-14T03:44:21;8.90;99.90
3156;DHT22;1588;50.892;7.082;2024-02-14T03:49:24;8.90;99.90
3156;DHT22;1588;50.892;7.082;2024-02-14T03:54:28;9.10;99.90
3156;DHT22;1588;50.892;7.082;2024-02-14T03:59:30;9.00;99.90
3156;DHT22;1588;50.892;7.082;2024-02-14T04:04:36;9.00;99.90
3156;DHT22;1588;50.892;7.082;2024-02-14T04:09:40;9.10;99.90
3156;DHT22;1588;50.892;7.082;2024-02-14T04:14:43;9.20;99.90
3156;DHT22;1588;50.892;7.082;2024-02-14T04:19:45;9.10;99.90
3156;DHT22;1588;50.892;7.082;2024-02-14T04:24:49;9.10;99.90
3156;DHT22;1588;50.892;7.082;2024-02-14T04:29:51;9.00;99.90
3156;DHT22;1588;50.892;7.082;2024-02-14T04:34:54;9.00;99.90
3156;DHT22;1588;50.892;7.082;2024-02-14T04:39:57;9.00;99.90
3156;DHT22;1588;50.892;7.082;2024-02-14T04:45:00;9.10;99.90
3156;DHT22;1588;50.892;7.082;2024-02-14T04:50:03;9.00;99.90
3156;DHT22;1588;50.892;7.082;2024-02-14T04:55:08;9.00;99.90
3156;DHT22;1588;50.892;7.082;2024-02-14T05:00:12;9.10;99.90
3156;DHT22;1588;50.892;7.082;2024-02-14T05:05:14;9.10;99.90
3156;DHT22;1588;50.892;7.082;2024-02-14T05:10:18;9.10;99.90
3156;DHT22;1588;50.892;7.082;2024-02-14T05:15:21;9.10;99.90
3156;DHT22;1588;50.892;7.082;2024-02-14T05:20:23;9.10;99.90
3156;DHT22;1588;50.892;7.082;2024-02-14T05:25:27;9.20;99.90
3156;DHT22;1588;50.892;7.082;2024-02-14T05:30:30;9.30;99.90
3156;DHT22;1588;50.892;7.082;2024-02-14T05:35:33;9.30;99.90
3156;DHT22;1588;50.892;7.082;2024-02-14T05:40:37;9.40;99.90
3156;DHT22;1588;50.892;7.082;2024-02-14T05:45:40;9.40;99.90
3156;DHT22;1588;50.892;7.082;2024-02-14T05:50:45;9.30;99.90
3156;DHT22;1588;50.892;7.082;2024-02-14T05:55:49;9.30;99.90
3156;DHT22;1588;50.892;7.082;2024-02-14T06:00:51;9.40;99.90
3156;DHT22;1588;50.892;7.082;2024-02-14T06:05:53;9.40;99.90
3156;DHT22;1588;50.892;7.082;2024-02-14T06:10:57;9.40;99.90
3156;DHT22;1588;50.892;7.082;2024-02-14T06:15:59;9.40;99.90
3156;DHT22;1588;50.892;7.082;2024-02-14T06:21:02;9.30;99.90
3156;DHT22;1588;50.892;7.082;2024-02-14T06:26:06;9.20;99.90
3156;DHT22;1588;50.892;7.082;2024-02-14T06:31:09;9.30;99.90
3156;DHT22;1588;50.892;7.082;2024-02-14T06:36:11;9.20;99.90
3156;DHT22;1588;50.892;7.082;2024-02-14T06:41:15;9.20;99.90
3156;DHT22;1588;50.892;7.082;2024-02-14T06:46:17;9.20;99.90
3156;DHT22;1588;50.892;7.082;2024-02-14T06:51:21;9.10;99.90
3156;DHT22;1588;50.892;7.082;2024-02-14T06:56:24;9.20;99.90
3156;DHT22;1588;50.892;7.082;2024-02-14T07:01:27;9.20;99.90
3156;DHT22;1588;50.892;7.082;2024-02-14T07:06:29;9.30;99.90
3156;DHT22;1588;50.892;7.082;2024-02-14T07:11:33;9.50;99.90
3156;DHT22;1588;50.892;7.082;2024-02-14T07:16:35;9.50;99.90
3156;DHT22;1588;50.892;7.082;2024-02-14T07:21:38;9.60;99.90
3156;DHT22;1588;50.892;7.082;2024-02-14T07:26:42;9.60;99.90
3156;DHT22;1588;50.892;7.082;2024-02-14T07:31:50;9.70;99.90
3156;DHT22;1588;50.892;7.082;2024-02-14T07:36:53;9.80;99.90
3156;DHT22;1588;50.892;7.082;2024-02-14T07:41:56;9.80;99.90
3156;DHT22;1588;50.892;7.082;2024-02-14T07:46:59;9.80;99.90
3156;DHT22;1588;50.892;7.082;2024-02-14T07:52:01;9.90;99.90
3156;DHT22;1588;50.892;7.082;2024-02-14T07:57:05;9.90;99.90
3156;DHT22;1588;50.892;7.082;2024-02-14T08:02:08;10.00;99.90
3156;DHT22;1588;50.892;7.082;2024-02-14T08:07:10;10.10;99.90
3156;DHT22;1588;50.892;7.082;2024-02-14T08:12:14;10.30;99.90
3156;DHT22;1588;50.892;7.082;2024-02-14T08:17:31;10.40;99.90
3156;DHT22;1588;50.892;7.082;2024-02-14T08:22:46;10.40;99.90
3156;DHT22;1588;50.892;7.082;2024-02-14T08:27:50;10.40;99.90
3156;DHT22;1588;50.892;7.082;2024-02-14T08:32:53;10.40;99.90
3156;DHT22;1588;50.892;7.082;2024-02-14T08:37:55;10.50;99.90
3156;DHT22;1588;50.892;7.082;2024-02-14T08:42:59;10.70;99.90
3156;DHT22;1588;50.892;7.082;2024-02-14T08:48:02;10.70;99.90
3156;DHT22;1588;50.892;7.082;2024-02-14T08:53:05;10.90;99.90
3156;DHT22;1588;50.892;7.082;2024-02-14T08:58:09;11.10;99.90
3156;DHT22;1588;50.892;7.082;2024-02-14T09:03:12;11.10;99.90
3156;DHT22;1588;50.892;7.082;2024-02-14T09:08:17;11.00;99.90
3156;DHT22;1588;50.892;7.082;2024-02-14T09:13:21;11.10;99.90
3156;DHT22;1588;50.892;7.082;2024-02-14T09:18:26;11.20;99.90
3156;DHT22;1588;50.892;7.082;2024-02-14T09:23:32;11.50;99.90
3156;DHT22;1588;50.892;7.082;2024-02-14T09:28:36;12.80;99.90
3156;DHT22;1588;50.892;7.082;2024-02-14T09:33:42;13.30;99.90
3156;DHT22;1588;50.892;7.082;2024-02-14T09:38:47;17.00;99.90
3156;DHT22;1588;50.892;7.082;2024-02-14T09:43:51;17.30;99.90
3156;DHT22;1588;50.892;7.082;2024-02-14T09:48:54;19.30;99.90
3156;DHT22;1588;50.892;7.082;2024-02-14T09:53:59;19.80;99.90
3156;DHT22;1588;50.892;7.082;2024-02-14T09:59:04;19.00;99.90
3156;DHT22;1588;50.892;7.082;2024-02-14T10:04:10;17.40;99.90
3156;DHT22;1588;50.892;7.082;2024-02-14T10:09:13;15.70;99.90
3156;DHT22;1588;50.892;7.082;2024-02-14T10:14:17;14.50;99.90
3156;DHT22;1588;50.892;7.082;2024-02-14T10:19:20;13.80;99.90
3156;DHT22;1588;50.892;7.082;2024-02-14T10:24:23;13.60;99.90
3156;DHT22;1588;50.892;7.082;2024-02-14T10:29:27;13.40;99.90
3156;DHT22;1588;50.892;7.082;2024-02-14T10:34:31;13.30;99.90
3156;DHT22;1588;50.892;7.082;2024-02-14T10:39:35;13.20;99.90
3156;DHT22;1588;50.892;7.082;2024-02-14T10:44:40;12.90;99.90
3156;DHT22;1588;50.892;7.082;2024-02-14T10:49:43;12.90;99.90
3156;DHT22;1588;50.892;7.082;2024-02-14T10:54:52;13.10;99.90
3156;DHT22;1588;50.892;7.082;2024-02-14T11:00:04;13.20;99.90
3156;DHT22;1588;50.892;7.082;2024-02-14T11:05:12;13.60;99.90
3156;DHT22;1588;50.892;7.082;2024-02-14T11:10:17;13.60;99.90
3156;DHT22;1588;50.892;7.082;2024-02-14T11:15:21;13.60;99.90
3156;DHT22;1588;50.892;7.082;2024-02-14T11:20:31;13.70;99.90
3156;DHT22;1588;50.892;7.082;2024-02-14T11:25:34;13.70;99.90
3156;DHT22;1588;50.892;7.082;2024-02-14T11:30:40;14.10;99.90
3156;DHT22;1588;50.892;7.082;2024-02-14T11:35:45;14.10;99.90
3156;DHT22;1588;50.892;7.082;2024-02-14T11:40:48;13.90;99.90
3156;DHT22;1588;50.892;7.082;2024-02-14T11:45:52;13.70;99.90
3156;DHT22;1588;50.892;7.082;2024-02-14T11:50:54;13.60;99.90
3156;DHT22;1588;50.892;7.082;2024-02-14T11:55:57;13.60;99.90
3156;DHT22;1588;50.892;7.082;2024-02-14T12:01:03;13.70;99.90
3156;DHT22;1588;50.892;7.082;2024-02-14T12:06:07;13.80;99.90
3156;DHT22;1588;50.892;7.082;2024-02-14T12:11:10;13.70;99.90
3156;DHT22;1588;50.892;7.082;2024-02-14T12:16:13;13.80;99.90
3156;DHT22;1588;50.892;7.082;2024-02-14T12:21:17;13.90;99.90
3156;DHT22;1588;50.892;7.082;2024-02-14T12:26:19;13.70;99.90
3156;DHT22;1588;50.892;7.082;2024-02-14T12:31:23;13.60;99.90
3156;DHT22;1588;50.892;7.082;2024-02-14T12:36:26;13.50;99.90
3156;DHT22;1588;50.892;7.082;2024-02-14T12:41:30;13.50;99.90
3156;DHT22;1588;50.892;7.082;2024-02-14T12:46:33;13.50;99.90
3156;DHT22;1588;50.892;7.082;2024-02-14T12:51:39;13.40;99.90
3156;DHT22;1588;50.892;7.082;2024-02-14T12:56:49;13.40;99.90
3156;DHT22;1588;50.892;7.082;2024-02-14T13:01:53;13.30;99.90
3156;DHT22;1588;50.892;7.082;2024-02-14T13:06:55;13.30;99.90
3156;DHT22;1588;50.892;7.082;2024-02-14T13:11:58;13.40;99.90
3156;DHT22;1588;50.892;7.082;2024-02-14T13:17:02;13.40;99.90
3156;DHT22;1588;50.892;7.082;2024-02-14T13:22:06;13.30;99.90
3156;DHT22;1588;50.892;7.082;2024-02-14T13:27:08;13.30;99.90
3156;DHT22;1588;50.892;7.082;2024-02-14T13:32:12;13.30;99.90
3156;DHT22;1588;50.892;7.082;2024-02-14T13:37:14;13.20;99.90
3156;DHT22;1588;50.892;7.082;2024-02-14T13:42:17;13.10;99.90
3156;DHT22;1588;50.892;7.082;2024-02-14T13:47:31;13.10;99.90
3156;DHT22;1588;50.892;7.082;2024-02-14T13:52:34;13.00;99.90
3156;DHT22;1588;50.892;7.082;2024-02-14T13:57:37;12.90;99.90
3156;DHT22;1588;50.892;7.082;2024-02-14T14:02:41;12.70;99.90
3156;DHT22;1588;50.892;7.082;2024-02-14T14:07:44;12.60;99.90
3156;DHT22;1588;50.892;7.082;2024-02-14T14:12:47;12.50;99.90
3156;DHT22;1588;50.892;7.082;2024-02-14T14:17:51;12.30;99.90
3156;DHT22;1588;50.892;7.082;2024-02-14T14:22:53;12.20;99.90
3156;DHT22;1588;50.892;7.082;2024-02-14T14:28:06;12.10;99.90
3156;DHT22;1588;50.892;7.082;2024-02-14T14:33:17;12.00;99.90
3156;DHT22;1588;50.892;7.082;2024-02-14T14:38:19;11.90;99.90
3156;DHT22;1588;50.892;7.082;2024-02-14T14:43:22;11.80;99.90
3156;DHT22;1588;50.892;7.082;2024-02-14T14:48:26;11.70;99.90
3156;DHT22;1588;50.892;7.082;2024-02-14T14:53:34;11.60;99.90
3156;DHT22;1588;50.892;7.082;2024-02-14T14:58:37;11.60;99.90
3156;DHT22;1588;50.892;7.082;2024-02-14T15:03:42;11.50;99.90
3156;DHT22;1588;50.892;7.082;2024-02-14T15:08:45;11.50;99.90
3156;DHT22;1588;50.892;7.082;2024-02-14T15:13:54;11.40;99.90
3156;DHT22;1588;50.892;7.082;2024-02-14T15:18:58;11.30;99.90
3156;DHT22;1588;50.892;7.082;2024-02-14T15:24:00;11.30;99.90
3156;DHT22;1588;50.892;7.082;2024-02-14T15:29:03;11.30;99.90
3156;DHT22;1588;50.892;7.082;2024-02-14T15:34:21;11.30;99.90
3156;DHT22;1588;50.892;7.082;2024-02-14T15:40:05;11.20;99.90
3156;DHT22;1588;50.892;7.082;2024-02-14T15:45:25;11.20;99.90
3156;DHT22;1588;50.892;7.082;2024-02-14T15:50:29;11.20;99.90
3156;DHT22;1588;50.892;7.082;2024-02-14T15:55:33;11.10;99.90
3156;DHT22;1588;50.892;7.082;2024-02-14T16:00:39;11.10;99.90
3156;DHT22;1588;50.892;7.082;2024-02-14T16:05:44;11.10;99.90
3156;DHT22;1588;50.892;7.082;2024-02-14T16:10:46;11.10;99.90
3156;DHT22;1588;50.892;7.082;2024-02-14T16:15:51;11.10;99.90
3156;DHT22;1588;50.892;7.082;2024-02-14T16:20:54;11.10;99.90
3156;DHT22;1588;50.892;7.082;2024-02-14T16:25:57;11.00;99.90
3156;DHT22;1588;50.892;7.082;2024-02-14T16:31:00;11.00;99.90
3156;DHT22;1588;50.892;7.082;2024-02-14T16:36:04;11.00;99.90
3156;DHT22;1588;50.892;7.082;2024-02-14T16:41:07;11.00;99.90
3156;DHT22;1588;50.892;7.082;2024-02-14T16:46:10;11.10;99.90
3156;DHT22;1588;50.892;7.082;2024-02-14T16:51:14;11.10;99.90
3156;DHT22;1588;50.892;7.082;2024-02-14T16:56:18;11.00;99.90
3156;DHT22;1588;50.892;7.082;2024-02-14T17:01:21;11.00;99.90
3156;DHT22;1588;50.892;7.082;2024-02-14T17:06:24;11.00;99.90
3156;DHT22;1588;50.892;7.082;2024-02-14T17:11:27;11.00;99.90
3156;DHT22;1588;50.892;7.082;2024-02-14T17:16:29;11.00;99.90
3156;DHT22;1588;50.892;7.082;2024-02-14T17:21:33;11.00;99.90
3156;DHT22;1588;50.892;7.082;2024-02-14T17:26:36;11.00;99.90
3156;DHT22;1588;50.892;7.082;2024-02-14T17:31:38;11.00;99.90
3156;DHT22;1588;50.892;7.082;2024-02-14T17:36:43;11.00;99.90
3156;DHT22;1588;50.892;7.082;2024-02-14T17:41:46;11.00;99.90
3156;DHT22;1588;50.892;7.082;2024-02-14T17:46:48;10.90;99.90
3156;DHT22;1588;50.892;7.082;2024-02-14T17:51:52;10.90;99.90
3156;DHT22;1588;50.892;7.082;2024-02-14T17:56:54;11.00;99.90
3156;DHT22;1588;50.892;7.082;2024-02-14T18:01:56;11.00;99.90
3156;DHT22;1588;50.892;7.082;2024-02-14T18:07:00;11.10;99.90
3156;DHT22;1588;50.892;7.082;2024-02-14T18:12:03;11.00;99.90
3156;DHT22;1588;50.892;7.082;2024-02-14T18:17:06;11.00;99.90
3156;DHT22;1588;50.892;7.082;2024-02-14T18:22:10;11.00;99.90
3156;DHT22;1588;50.892;7.082;2024-02-14T18:27:13;11.00;99.90
3156;DHT22;1588;50.892;7.082;2024-02-14T18:32:15;11.00;99.90
3156;DHT22;1588;50.892;7.082;2024-02-14T18:37:19;11.00;99.90
3156;DHT22;1588;50.892;7.082;2024-02-14T18:42:22;11.00;99.90
3156;DHT22;1588;50.892;7.082;2024-02-14T18:47:24;11.00;99.90
3156;DHT22;1588;50.892;7.082;2024-02-14T18:52:28;11.00;99.90
3156;DHT22;1588;50.892;7.082;2024-02-14T18:57:30;11.00;99.90
3156;DHT22;1588;50.892;7.082;2024-02-14T19:02:33;11.10;99.90
3156;DHT22;1588;50.892;7.082;2024-02-14T19:07:39;11.10;99.90
3156;DHT22;1588;50.892;7.082;2024-02-14T19:12:42;11.10;99.90
3156;DHT22;1588;50.892;7.082;2024-02-14T19:17:44;11.10;99.90
3156;DHT22;1588;50.892;7.082;2024-02-14T19:22:48;11.10;99.90
3156;DHT22;1588;50.892;7.082;2024-02-14T19:27:50;11.10;99.90
3156;DHT22;1588;50.892;7.082;2024-02-14T19:32:56;11.10;99.90
3156;DHT22;1588;50.892;7.082;2024-02-14T19:38:00;11.10;99.90
3156;DHT22;1588;50.892;7.082;2024-02-14T19:43:02;11.10;99.90
3156;DHT22;1588;50.892;7.082;2024-02-14T19:48:06;11.10;99.90
3156;DHT22;1588;50.892;7.082;2024-02-14T19:53:13;11.10;99.90
3156;DHT22;1588;50.892;7.082;2024-02-14T19:58:16;11.10;99.90
3156;DHT22;1588;50.892;7.082;2024-02-14T20:03:19;11.10;99.90
3156;DHT22;1588;50.892;7.082;2024-02-14T20:08:23;11.00;99.90
3156;DHT22;1588;50.892;7.082;2024-02-14T20:13:27;11.00;99.90
3156;DHT22;1588;50.892;7.082;2024-02-14T20:18:32;11.00;99.90
3156;DHT22;1588;50.892;7.082;2024-02-14T20:23:36;11.00;99.90
3156;DHT22;1588;50.892;7.082;2024-02-14T20:28:42;11.00;99.90
3156;DHT22;1588;50.892;7.082;2024-02-14T20:33:51;11.00;99.90
3156;DHT22;1588;50.892;7.082;2024-02-14T20:38:56;11.00;99.90
3156;DHT22;1588;50.892;7.082;2024-02-14T20:44:00;11.00;99.90
3156;DHT22;1588;50.892;7.082;2024-02-14T20:49:03;11.00;99.90
3156;DHT22;1588;50.892;7.082;2024-02-14T20:54:08;11.00;99.90
3156;DHT22;1588;50.892;7.082;2024-02-14T20:59:11;11.00;99.90
3156;DHT22;1588;50.892;7.082;2024-02-14T21:04:14;11.00;99.90
3156;DHT22;1588;50.892;7.082;2024-02-14T21:09:18;11.00;99.90
3156;DHT22;1588;50.892;7.082;2024-02-14T21:14:20;11.00;99.90
3156;DHT22;1588;50.892;7.082;2024-02-14T21:19:23;11.00;99.90
3156;DHT22;1588;50.892;7.082;2024-02-14T21:24:26;11.00;99.90
3156;DHT22;1588;50.892;7.082;2024-02-14T21:29:29;11.00;99.90
3156;DHT22;1588;50.892;7.082;2024-02-14T21:34:31;10.90;99.90
3156;DHT22;1588;50.892;7.082;2024-02-14T21:39:35;10.90;99.90
3156;DHT22;1588;50.892;7.082;2024-02-14T21:44:39;11.00;99.90
3156;DHT22;1588;50.892;7.082;2024-02-14T21:49:42;11.00;99.90
3156;DHT22;1588;50.892;7.082;2024-02-14T21:54:48;11.00;99.90
3156;DHT22;1588;50.892;7.082;2024-02-14T21:59:52;11.00;99.90
3156;DHT22;1588;50.892;7.082;2024-02-14T22:04:55;11.00;99.90
3156;DHT22;1588;50.892;7.082;2024-02-14T22:09:58;11.00;99.90
3156;DHT22;1588;50.892;7.082;2024-02-14T22:15:01;11.00;99.90
3156;DHT22;1588;50.892;7.082;2024-02-14T22:20:04;11.00;99.90
3156;DHT22;1588;50.892;7.082;2024-02-14T22:25:09;11.00;99.90
3156;DHT22;1588;50.892;7.082;2024-02-14T22:30:12;11.00;99.90
3156;DHT22;1588;50.892;7.082;2024-02-14T22:35:15;11.00;99.90
3156;DHT22;1588;50.892;7.082;2024-02-14T22:40:25;11.00;99.90
3156;DHT22;1588;50.892;7.082;2024-02-14T22:45:28;11.00;99.90
3156;DHT22;1588;50.892;7.082;2024-02-14T22:50:38;11.00;99.90
3156;DHT22;1588;50.892;7.082;2024-02-14T22:55:42;10.90;99.90
3156;DHT22;1588;50.892;7.082;2024-02-14T23:00:50;11.00;99.90
3156;DHT22;1588;50.892;7.082;2024-02-14T23:05:52;11.00;99.90
3156;DHT22;1588;50.892;7.082;2024-02-14T23:11:00;11.00;99.90
3156;DHT22;1588;50.892;7.082;2024-02-14T23:16:02;11.00;99.90
3156;DHT22;1588;50.892;7.082;2024-02-14T23:21:05;11.10;99.90
3156;DHT22;1588;50.892;7.082;2024-02-14T23:26:09;11.00;99.90
3156;DHT22;1588;50.892;7.082;2024-02-14T23:31:12;11.00;99.90
3156;DHT22;1588;50.892;7.082;2024-02-14T23:36:17;11.00;99.90
3156;DHT22;1588;50.892;7.082;2024-02-14T23:41:21;11.00;99.90
3156;DHT22;1588;50.892;7.082;2024-02-14T23:46:24;11.00;99.90
3156;DHT22;1588;50.892;7.082;2024-02-14T23:51:27;11.00;99.90
3156;DHT22;1588;50.892;7.082;2024-02-14T23:56:44;11.10;99.90
